createdAt,value
2023-02-21T03:18:26.395Z,32.64
2023-02-21T03:31:26.281Z,32.57
2023-02-21T03:32:26.390Z,32.57
2023-02-21T03:33:26.396Z,32.58
2023-02-21T03:34:26.380Z,32.57
2023-02-21T03:35:26.444Z,32.57
2023-02-21T03:36:26.477Z,32.57
2023-02-21T03:37:26.508Z,32.57
2023-02-21T03:38:26.567Z,32.56
2023-02-21T03:39:26.681Z,32.59
2023-02-21T03:40:26.636Z,32.53
2023-02-21T03:41:26.668Z,32.51
2023-02-21T03:42:26.716Z,32.51
2023-02-21T03:43:26.835Z,32.52
2023-02-21T03:44:26.801Z,32.51
2023-02-21T03:45:26.853Z,32.54
2023-02-21T03:46:26.939Z,32.55
2023-02-21T03:47:26.932Z,32.54
2023-02-21T03:48:32.313Z,32.55
2023-02-21T03:49:27.954Z,32.57
2023-02-21T03:50:26.940Z,32.59
2023-02-21T03:51:26.905Z,32.58
2023-02-21T03:52:26.895Z,32.59
2023-02-21T03:53:26.867Z,32.59
2023-02-21T03:54:26.835Z,32.56
2023-02-21T03:55:26.823Z,32.56
2023-02-21T03:56:36.673Z,32.55
2023-02-21T03:57:27.794Z,32.54
2023-02-21T03:58:26.763Z,32.53
2023-02-21T03:59:26.812Z,32.49
2023-02-21T04:00:26.712Z,32.50
2023-02-21T04:01:26.688Z,32.50
2023-02-21T04:02:26.679Z,32.50
2023-02-21T04:03:26.654Z,32.49
2023-02-21T04:04:26.710Z,32.48
2023-02-21T04:05:26.667Z,32.49
2023-02-21T04:06:26.710Z,32.47
2023-02-21T04:07:26.765Z,32.46
2023-02-21T04:08:26.814Z,32.47
2023-02-21T04:09:26.847Z,32.46
2023-02-21T04:10:26.881Z,32.43
2023-02-21T04:11:26.930Z,32.44
2023-02-21T04:12:26.976Z,32.44
2023-02-21T04:13:27.013Z,32.44
2023-02-21T04:14:27.070Z,32.42
2023-02-21T04:15:27.110Z,32.46
2023-02-21T04:16:27.249Z,32.48
2023-02-21T04:17:27.213Z,32.48
2023-02-21T04:18:27.213Z,32.48
2023-02-21T04:19:27.266Z,32.49
2023-02-21T04:20:27.284Z,32.50
2023-02-21T04:21:27.328Z,32.51
2023-02-21T04:22:27.332Z,32.51
2023-02-21T04:23:27.370Z,32.50
2023-02-21T04:24:27.395Z,32.49
2023-02-21T04:25:27.427Z,32.50
2023-02-21T04:26:27.467Z,32.48
2023-02-21T04:27:27.515Z,32.47
2023-02-21T04:28:27.565Z,32.47
2023-02-21T04:29:27.607Z,32.46
2023-02-21T04:30:27.696Z,32.48
2023-02-21T04:32:27.792Z,32.44
2023-02-21T04:33:27.764Z,32.46
2023-02-21T04:34:27.804Z,32.43
2023-02-21T04:35:27.838Z,32.44
2023-02-21T04:53:28.492Z,32.29
2023-02-21T04:54:28.534Z,32.28
2023-02-21T04:55:28.572Z,32.28
2023-02-21T04:56:28.657Z,32.23
2023-02-21T04:57:28.647Z,32.27
2023-02-21T04:58:33.601Z,32.24
2023-02-21T05:00:28.643Z,32.22
2023-02-21T05:01:28.659Z,32.22
2023-02-21T05:02:28.596Z,32.24
2023-02-21T05:03:28.576Z,32.23
2023-02-21T05:04:28.598Z,32.21
2023-02-21T05:05:28.522Z,32.19
2023-02-21T05:06:28.490Z,32.17
2023-02-21T05:07:28.516Z,32.17
2023-02-21T05:08:28.855Z,32.18
2023-02-21T05:09:28.590Z,32.19
2023-02-21T05:10:43.483Z,32.17
2023-02-21T05:11:29.600Z,32.20
2023-02-21T05:12:28.572Z,32.20
2023-02-21T05:13:28.566Z,32.18
2023-02-21T05:14:28.524Z,32.19
2023-02-21T05:15:28.505Z,32.19
2023-02-21T05:16:28.542Z,32.17
2023-02-21T05:17:28.460Z,32.20
2023-02-21T05:18:28.447Z,32.16
2023-02-21T05:19:28.451Z,32.18
2023-02-21T05:20:28.498Z,32.18
2023-02-21T05:21:28.531Z,32.19
2023-02-21T05:22:28.573Z,32.19
2023-02-21T05:23:28.610Z,32.20
2023-02-21T05:24:28.655Z,32.23
2023-02-21T05:25:28.688Z,32.20
2023-02-21T05:26:28.725Z,32.20
2023-02-21T05:27:28.768Z,32.20
2023-02-21T05:28:28.827Z,32.19
2023-02-21T05:29:28.857Z,32.18
2023-02-21T05:30:28.951Z,32.19
2023-02-21T05:31:28.986Z,32.14
2023-02-21T05:32:29.001Z,32.10
2023-02-21T05:33:29.003Z,32.17
2023-02-21T05:34:29.054Z,32.13
2023-02-21T05:35:29.092Z,32.15
2023-02-21T05:36:29.136Z,32.16
2023-02-21T05:37:31.287Z,32.13
2023-02-21T05:38:29.214Z,32.16
2023-02-21T05:39:29.301Z,32.16
2023-02-21T05:40:29.293Z,32.10
2023-02-21T05:41:29.376Z,32.13
2023-02-21T05:42:29.366Z,32.07
2023-02-21T05:43:29.408Z,32.10
2023-02-21T05:44:29.445Z,32.10
2023-02-21T05:45:29.487Z,32.10
2023-02-21T05:46:29.538Z,32.09
2023-02-21T05:47:29.569Z,32.08
2023-02-21T05:48:29.612Z,32.14
2023-02-21T05:49:29.652Z,32.07
2023-02-21T05:50:29.684Z,32.11
2023-02-21T05:51:29.718Z,32.12
2023-02-21T05:52:29.751Z,32.07
2023-02-21T05:53:29.785Z,32.09
2023-02-21T05:54:29.819Z,32.07
2023-02-21T05:55:29.861Z,32.06
2023-02-21T05:56:29.904Z,32.07
2023-02-21T05:57:29.955Z,32.09
2023-02-21T05:58:29.998Z,32.04
2023-02-21T05:59:30.021Z,32.05
2023-02-21T06:00:30.072Z,32.03
2023-02-21T06:01:30.109Z,32.05
2023-02-21T06:02:30.231Z,32.04
2023-02-21T06:03:30.376Z,32.03
2023-02-21T06:04:30.234Z,32.07
2023-02-21T06:05:30.268Z,32.15
2023-02-21T06:06:30.317Z,32.17
2023-02-21T06:07:30.364Z,32.20
2023-02-21T06:08:30.405Z,32.19
2023-02-21T06:09:30.515Z,32.19
2023-02-21T06:10:30.481Z,32.16
2023-02-21T06:11:30.553Z,32.32
2023-02-21T06:12:30.561Z,32.44
2023-02-21T06:13:32.743Z,32.54
2023-02-21T06:14:30.643Z,32.59
2023-02-21T06:15:30.704Z,32.75
2023-02-21T06:16:30.716Z,32.74
2023-02-21T06:17:30.753Z,32.82
2023-02-21T06:18:31.380Z,32.77
2023-02-21T06:19:33.210Z,32.81
2023-02-21T06:20:30.956Z,32.77
2023-02-21T06:21:30.993Z,32.73
2023-02-21T06:22:31.024Z,32.67
2023-02-21T06:23:31.062Z,32.85
2023-02-21T06:25:31.126Z,32.94
2023-02-21T06:26:31.154Z,32.88
2023-02-21T06:27:31.173Z,32.85
2023-02-21T06:28:31.212Z,33.03
2023-02-21T06:29:31.229Z,33.05
2023-02-21T06:30:31.330Z,32.92
2023-02-21T06:31:31.303Z,32.98
2023-02-21T06:32:31.312Z,32.93
2023-02-21T06:33:31.326Z,31.76
2023-02-21T06:34:31.343Z,29.78
2023-02-21T06:35:31.398Z,30.31
2023-02-21T06:36:31.430Z,30.76
2023-02-21T06:37:31.459Z,30.64
2023-02-21T06:38:31.495Z,30.95
2023-02-21T06:39:31.550Z,31.40
2023-02-21T06:40:31.598Z,31.58
2023-02-21T06:41:31.635Z,31.92
2023-02-21T06:42:31.676Z,32.09
2023-02-21T06:43:31.704Z,32.21
2023-02-21T06:44:31.744Z,32.31
2023-02-21T06:45:31.786Z,32.37
2023-02-21T06:46:31.985Z,32.39
2023-02-21T06:47:31.850Z,32.40
2023-02-21T06:48:32.388Z,32.41
2023-02-21T06:49:31.918Z,32.44
2023-02-21T06:50:31.949Z,32.44
2023-02-21T06:51:31.971Z,32.50
2023-02-21T06:52:32.025Z,32.57
2023-02-21T06:53:32.056Z,32.55
2023-02-21T06:54:32.096Z,32.58
2023-02-21T06:55:32.127Z,32.55
2023-02-21T06:56:32.251Z,32.59
2023-02-21T06:57:32.199Z,32.60
2023-02-21T06:58:32.308Z,32.55
2023-02-21T06:59:32.271Z,32.59
2023-02-21T07:00:32.318Z,31.54
2023-02-21T07:01:32.401Z,31.10
2023-02-21T07:02:32.400Z,30.44
2023-02-21T07:03:32.435Z,30.05
2023-02-21T07:04:32.504Z,29.91
2023-02-21T07:05:32.528Z,29.87
2023-02-21T07:06:32.564Z,30.24
2023-02-21T07:07:32.613Z,30.43
2023-02-21T07:08:32.653Z,31.03
2023-02-21T07:09:32.703Z,31.64
2023-02-21T07:10:32.749Z,31.79
2023-02-21T07:11:32.823Z,31.79
2023-02-21T07:12:32.827Z,31.69
2023-02-21T07:13:32.871Z,32.16
2023-02-21T07:14:32.917Z,32.38
2023-02-21T07:15:32.950Z,32.45
2023-02-21T07:19:33.118Z,32.03
2023-02-21T07:21:33.225Z,32.05
2023-02-21T07:22:33.280Z,32.34
2023-02-21T07:25:33.246Z,32.82
2023-02-21T07:26:33.254Z,32.68
2023-02-21T07:27:33.270Z,33.57
2023-02-21T07:28:33.178Z,32.84
2023-02-21T07:29:33.161Z,32.55
2023-02-21T07:30:33.175Z,32.52
2023-02-21T07:31:33.182Z,32.47
2023-02-21T07:32:33.079Z,32.34
2023-02-21T07:33:33.064Z,32.21
2023-02-21T07:34:33.034Z,32.21
2023-02-21T07:35:33.065Z,32.22
2023-02-21T07:36:33.112Z,32.18
2023-02-21T07:37:33.151Z,32.25
2023-02-21T07:38:33.190Z,32.25
2023-02-21T07:39:33.239Z,32.26
2023-02-21T07:40:33.268Z,32.28
2023-02-21T07:41:33.369Z,32.34
2023-02-21T07:42:33.409Z,32.21
2023-02-21T07:43:33.381Z,32.26
2023-02-21T07:44:33.429Z,32.28
2023-02-21T07:45:33.466Z,32.24
2023-02-21T07:47:33.556Z,32.18
2023-02-21T07:48:33.600Z,32.13
2023-02-21T07:49:33.636Z,32.13
2023-02-21T07:50:33.682Z,32.11
2023-02-21T07:53:33.831Z,32.23
2023-02-21T07:56:34.074Z,31.96
2023-02-21T08:24:34.891Z,33.62
2023-02-21T08:25:34.793Z,33.58
2023-02-21T08:26:34.762Z,33.40
2023-02-21T08:27:34.744Z,33.59
2023-02-21T08:28:34.716Z,33.60
2023-02-21T08:29:34.685Z,33.59
2023-02-21T08:30:34.670Z,33.92
2023-02-21T08:31:34.699Z,33.95
2023-02-21T08:32:34.632Z,33.71
2023-02-21T08:33:34.656Z,33.51
2023-02-21T08:34:34.706Z,33.49
2023-02-21T08:35:34.732Z,33.65
2023-02-21T08:36:34.800Z,33.77
2023-02-21T08:37:34.769Z,33.63
2023-02-21T08:38:34.782Z,33.55
2023-02-21T08:39:34.806Z,33.41
2023-02-21T08:40:34.896Z,33.36
2023-02-21T08:41:34.860Z,33.31
2023-02-21T08:42:34.877Z,33.34
2023-02-21T08:43:34.918Z,33.30
2023-02-21T08:44:34.919Z,33.25
2023-02-21T08:45:34.959Z,33.32
2023-02-21T08:46:35.019Z,33.31
2023-02-21T08:47:35.042Z,33.34
2023-02-21T08:48:35.090Z,33.39
2023-02-21T08:49:35.058Z,33.28
2023-02-21T08:52:35.226Z,33.15
2023-02-21T08:53:35.153Z,33.26
2023-02-21T08:54:35.181Z,33.33
2023-02-21T08:55:35.224Z,33.40
2023-02-21T08:56:35.249Z,33.32
2023-02-21T08:57:35.275Z,33.40
2023-02-21T08:58:37.798Z,33.22
2023-02-21T08:59:35.329Z,33.17
2023-02-21T09:00:35.252Z,33.23
2023-02-21T09:01:35.242Z,33.26
2023-02-21T09:02:35.269Z,33.25
2023-02-21T09:03:35.163Z,33.27
2023-02-21T09:04:35.125Z,33.26
2023-02-21T09:05:35.169Z,33.17
2023-02-21T09:06:35.868Z,33.17
2023-02-21T09:07:35.047Z,33.10
2023-02-21T09:08:35.020Z,33.12
2023-02-21T09:09:34.980Z,33.11
2023-02-21T09:10:35.014Z,33.15
2023-02-21T09:11:35.393Z,33.21
2023-02-21T09:12:34.908Z,34.07
2023-02-21T09:13:35.941Z,35.09
2023-02-21T09:14:34.875Z,35.44
2023-02-21T09:15:34.830Z,35.85
2023-02-21T09:16:34.844Z,37.06
2023-02-21T09:17:34.779Z,37.67
2023-02-21T09:18:34.740Z,37.85
2023-02-21T09:19:34.805Z,38.01
2023-02-21T09:20:34.696Z,37.88
2023-02-21T09:21:35.375Z,38.43
2023-02-21T09:22:34.667Z,38.53
2023-02-21T09:23:34.614Z,38.93
2023-02-21T09:24:34.578Z,38.32
2023-02-21T09:25:34.559Z,37.90
2023-02-21T09:26:34.530Z,37.85
2023-02-21T09:27:34.491Z,37.62
2023-02-21T09:28:34.472Z,37.60
2023-02-21T09:29:45.370Z,37.59
2023-02-21T09:30:35.514Z,37.68
2023-02-21T09:31:34.410Z,37.18
2023-02-21T09:32:34.387Z,35.98
2023-02-21T09:33:34.314Z,35.45
2023-02-21T09:34:34.286Z,35.49
2023-02-21T09:35:34.268Z,35.49
2023-02-21T09:36:34.218Z,35.38
2023-02-21T09:37:34.171Z,35.19
2023-02-21T09:38:34.798Z,35.12
2023-02-21T09:39:34.121Z,35.21
2023-02-21T09:40:34.126Z,35.19
2023-02-21T09:41:34.118Z,35.73
2023-02-21T09:42:34.027Z,35.45
2023-02-21T09:43:33.993Z,35.30
2023-02-21T09:44:33.970Z,35.22
2023-02-21T09:45:33.967Z,35.34
2023-02-21T09:46:33.918Z,35.45
2023-02-21T09:47:33.877Z,35.56
2023-02-21T09:48:33.845Z,35.56
2023-02-21T09:49:33.806Z,35.54
2023-02-21T09:50:33.784Z,35.58
2023-02-21T09:51:33.746Z,35.56
2023-02-21T09:52:33.720Z,35.51
2023-02-21T09:53:33.691Z,35.44
2023-02-21T09:54:33.660Z,35.54
2023-02-21T09:55:33.627Z,35.37
2023-02-21T09:56:34.358Z,35.31
2023-02-21T09:57:33.571Z,35.11
2023-02-21T09:58:33.530Z,35.24
2023-02-21T09:59:33.509Z,35.23
2023-02-21T10:00:33.483Z,35.46
2023-02-21T10:01:33.501Z,35.52
2023-02-21T10:02:33.426Z,35.44
2023-02-21T10:03:33.374Z,35.57
2023-02-21T10:04:33.497Z,35.57
2023-02-21T10:05:33.416Z,35.39
2023-02-21T10:06:33.430Z,35.15
2023-02-21T10:07:33.447Z,35.03
2023-02-21T10:08:33.479Z,34.99
2023-02-21T10:09:33.505Z,35.18
2023-02-21T10:10:33.517Z,35.30
2023-02-21T10:11:33.547Z,35.31
2023-02-21T10:12:33.564Z,35.34
2023-02-21T10:13:33.613Z,35.40
2023-02-21T10:14:34.363Z,35.20
2023-02-21T10:15:33.620Z,35.04
2023-02-21T10:16:33.689Z,34.90
2023-02-21T10:17:34.288Z,34.85
2023-02-21T10:18:33.675Z,34.59
2023-02-21T10:19:33.706Z,35.04
2023-02-21T10:20:33.713Z,35.08
2023-02-21T10:21:33.743Z,35.21
2023-02-21T10:22:33.786Z,35.64
2023-02-21T10:23:33.885Z,35.63
2023-02-21T10:24:33.823Z,35.59
2023-02-21T10:25:33.839Z,35.55
2023-02-21T10:26:35.297Z,35.47
2023-02-21T10:27:33.863Z,35.49
2023-02-21T10:28:33.899Z,35.42
2023-02-21T10:29:33.859Z,35.34
2023-02-21T10:30:35.046Z,35.35
2023-02-21T10:31:33.963Z,35.24
2023-02-21T10:32:34.857Z,35.11
2023-02-21T10:33:35.050Z,35.10
2023-02-21T10:34:33.885Z,34.88
2023-02-21T10:35:34.798Z,31.84
2023-02-21T10:36:34.893Z,32.04
2023-02-21T10:37:33.958Z,31.09
2023-02-21T10:38:33.898Z,30.48
2023-02-21T10:39:33.922Z,31.13
2023-02-21T10:40:33.913Z,29.75
2023-02-21T10:41:34.876Z,29.84
2023-02-21T10:42:33.982Z,29.69
2023-02-21T10:43:33.875Z,30.15
2023-02-21T10:44:33.891Z,30.59
2023-02-21T10:45:33.898Z,29.73
2023-02-21T10:46:33.735Z,29.70
2023-02-21T10:47:33.781Z,27.89
2023-02-21T10:48:33.667Z,29.49
2023-02-21T10:49:34.373Z,28.99
2023-02-21T10:50:33.869Z,30.42
2023-02-21T10:51:33.835Z,32.28
2023-02-21T10:52:35.632Z,33.48
2023-02-21T10:53:34.044Z,33.68
2023-02-21T10:54:35.331Z,33.47
2023-02-21T10:55:34.074Z,33.25
2023-02-21T10:56:34.084Z,33.46
2023-02-21T10:57:34.076Z,33.87
2023-02-21T10:58:34.100Z,33.36
2023-02-21T10:59:34.094Z,33.73
2023-02-21T11:00:34.110Z,33.49
2023-02-21T11:01:34.165Z,33.16
2023-02-21T11:02:34.253Z,33.15
2023-02-21T11:03:34.171Z,33.08
2023-02-21T11:04:34.165Z,33.31
2023-02-21T11:05:34.186Z,33.62
2023-02-21T11:06:34.178Z,33.83
2023-02-21T11:07:34.217Z,33.25
2023-02-21T11:08:34.255Z,33.11
2023-02-21T11:09:34.291Z,33.63
2023-02-21T11:10:34.340Z,33.38
2023-02-21T11:11:36.733Z,33.42
2023-02-21T11:12:34.342Z,33.63
2023-02-21T11:13:34.296Z,33.59
2023-02-21T11:14:34.258Z,33.58
2023-02-21T11:15:34.285Z,33.67
2023-02-21T11:16:34.208Z,33.85
2023-02-21T11:17:34.167Z,33.82
2023-02-21T11:18:34.130Z,33.75
2023-02-21T11:19:34.088Z,33.82
2023-02-21T11:20:34.062Z,33.78
2023-02-21T11:21:34.029Z,33.77
2023-02-21T11:22:34.921Z,33.75
2023-02-21T11:23:33.992Z,33.74
2023-02-21T11:24:33.960Z,33.79
2023-02-21T11:25:33.908Z,33.81
2023-02-21T11:26:34.424Z,33.75
2023-02-21T11:27:33.849Z,33.69
2023-02-21T11:28:33.820Z,33.83
2023-02-21T11:29:33.780Z,33.97
2023-02-21T11:30:33.788Z,34.32
2023-02-21T11:31:33.828Z,34.37
2023-02-21T11:32:34.405Z,34.56
2023-02-21T11:33:33.657Z,34.59
2023-02-21T11:34:33.629Z,34.56
2023-02-21T11:35:33.593Z,34.59
2023-02-21T11:36:33.583Z,34.71
2023-02-21T11:37:34.364Z,34.83
2023-02-21T11:38:33.513Z,34.44
2023-02-21T11:39:33.461Z,34.27
2023-02-21T11:40:33.444Z,34.27
2023-02-21T11:41:33.407Z,34.12
2023-02-21T11:42:33.367Z,34.45
2023-02-21T11:43:33.344Z,34.71
2023-02-21T11:44:33.312Z,34.93
2023-02-21T11:45:33.321Z,35.02
2023-02-21T11:46:33.250Z,34.97
2023-02-21T11:47:33.212Z,34.94
2023-02-21T11:48:33.189Z,34.87
2023-02-21T11:49:33.147Z,34.79
2023-02-21T11:50:33.113Z,34.60
2023-02-21T11:51:33.087Z,34.37
2023-02-21T11:52:33.057Z,34.29
2023-02-21T11:53:33.033Z,34.33
2023-02-21T11:54:33.002Z,34.27
2023-02-21T11:55:32.964Z,34.14
2023-02-21T11:56:32.937Z,34.18
2023-02-21T11:57:32.913Z,34.05
2023-02-21T11:58:32.890Z,34.04
2023-02-21T11:59:32.872Z,33.95
2023-02-21T12:00:32.843Z,33.65
2023-02-21T12:01:32.821Z,33.57
2023-02-21T12:02:32.791Z,33.69
2023-02-21T12:03:32.749Z,33.88
2023-02-21T12:04:32.756Z,34.34
2023-02-21T12:05:32.819Z,34.29
2023-02-21T12:06:32.756Z,34.22
2023-02-21T12:07:32.757Z,34.25
2023-02-21T12:08:32.767Z,34.03
2023-02-21T12:09:32.768Z,34.03
2023-02-21T12:10:32.768Z,34.01
2023-02-21T12:11:32.788Z,33.93
2023-02-21T12:12:32.757Z,34.01
2023-02-21T12:13:32.747Z,34.38
2023-02-21T12:14:32.746Z,34.60
2023-02-21T12:15:32.764Z,34.60
2023-02-21T12:16:32.730Z,35.00
2023-02-21T12:17:32.742Z,35.02
2023-02-21T12:18:32.734Z,34.94
2023-02-21T12:19:32.816Z,34.79
2023-02-21T12:20:32.733Z,34.92
2023-02-21T12:21:32.747Z,34.84
2023-02-21T12:22:32.738Z,34.78
2023-02-21T12:23:32.814Z,34.74
2023-02-21T12:24:32.745Z,34.70
2023-02-21T12:25:32.809Z,34.74
2023-02-21T12:26:32.757Z,34.73
2023-02-21T12:27:32.772Z,34.72
2023-02-21T12:28:32.776Z,35.74
2023-02-21T12:29:32.778Z,36.21
2023-02-21T12:30:32.786Z,36.34
2023-02-21T12:31:32.932Z,36.33
2023-02-21T12:32:32.781Z,36.13
2023-02-21T12:33:33.413Z,35.91
2023-02-21T12:34:32.768Z,36.16
2023-02-21T12:35:32.821Z,36.57
2023-02-21T12:36:32.777Z,36.75
2023-02-21T12:37:32.782Z,36.99
2023-02-21T12:38:32.785Z,37.37
2023-02-21T12:39:32.794Z,37.43
2023-02-21T12:40:32.789Z,37.10
2023-02-21T12:41:32.855Z,37.09
2023-02-21T12:42:32.797Z,36.80
2023-02-21T12:43:32.793Z,36.38
2023-02-21T12:44:32.953Z,36.52
2023-02-21T12:45:32.792Z,36.54
2023-02-21T12:46:32.846Z,36.45
2023-02-21T12:47:32.773Z,36.31
2023-02-21T12:48:32.788Z,36.25
2023-02-21T12:49:32.772Z,36.13
2023-02-21T12:50:33.475Z,36.12
2023-02-21T12:51:32.764Z,36.03
2023-02-21T12:52:32.761Z,35.74
2023-02-21T12:53:32.761Z,35.42
2023-02-21T12:54:32.765Z,35.53
2023-02-21T12:55:32.766Z,35.71
2023-02-21T12:56:32.855Z,35.63
2023-02-21T12:57:32.763Z,35.63
2023-02-21T12:58:32.773Z,35.52
2023-02-21T12:59:32.790Z,35.35
2023-02-21T13:00:32.771Z,35.52
2023-02-21T13:01:32.793Z,35.60
2023-02-21T13:02:32.808Z,35.91
2023-02-21T13:03:32.767Z,36.68
2023-02-21T13:04:32.775Z,36.77
2023-02-21T13:05:32.777Z,36.76
2023-02-21T13:06:32.787Z,36.64
2023-02-21T13:07:32.801Z,36.51
2023-02-21T13:08:32.782Z,36.54
2023-02-21T13:09:32.781Z,36.51
2023-02-21T13:10:32.795Z,36.53
2023-02-21T13:11:32.799Z,36.45
2023-02-21T13:12:32.799Z,36.53
2023-02-21T13:13:32.802Z,36.47
2023-02-21T13:14:32.788Z,36.23
2023-02-21T13:15:32.785Z,36.25
2023-02-21T13:16:32.789Z,36.29
2023-02-21T13:17:32.789Z,36.20
2023-02-21T13:18:32.802Z,36.22
2023-02-21T13:19:32.788Z,36.27
2023-02-21T13:20:32.797Z,36.30
2023-02-21T13:21:32.801Z,36.44
2023-02-21T13:22:32.774Z,36.42
2023-02-21T13:23:32.793Z,36.50
2023-02-21T13:24:32.787Z,36.48
2023-02-21T13:25:32.787Z,36.38
2023-02-21T13:26:32.834Z,36.12
2023-02-21T13:27:32.784Z,36.18
2023-02-21T13:28:32.790Z,36.17
2023-02-21T13:29:32.780Z,36.16
2023-02-21T13:30:32.853Z,36.18
2023-02-21T13:31:32.914Z,36.13
2023-02-21T13:32:32.770Z,36.10
2023-02-21T13:33:32.762Z,36.08
2023-02-21T13:34:32.751Z,36.06
2023-02-21T13:35:32.749Z,36.04
2023-02-21T13:36:32.756Z,36.06
2023-02-21T13:37:32.746Z,36.03
2023-02-21T13:38:32.749Z,35.96
2023-02-21T13:39:32.755Z,35.97
2023-02-21T13:40:32.744Z,36.01
2023-02-21T13:41:32.748Z,35.97
2023-02-21T13:42:32.743Z,35.90
2023-02-21T13:43:32.728Z,35.91
2023-02-21T13:44:32.731Z,35.95
2023-02-21T13:45:32.725Z,35.90
2023-02-21T13:46:32.741Z,35.89
2023-02-21T13:47:32.706Z,35.88
2023-02-21T13:48:32.709Z,35.79
2023-02-21T13:49:32.702Z,35.81
2023-02-21T13:50:32.722Z,35.82
2023-02-21T13:51:32.697Z,35.76
2023-02-21T13:52:32.684Z,35.79
2023-02-21T13:53:32.682Z,35.71
2023-02-21T13:54:32.689Z,35.73
2023-02-21T13:55:32.711Z,35.68
2023-02-21T13:56:32.684Z,35.64
2023-02-21T13:57:32.678Z,35.68
2023-02-21T13:58:32.675Z,35.69
2023-02-21T13:59:32.676Z,35.58
2023-02-21T14:00:32.712Z,35.65
2023-02-21T14:01:32.681Z,35.68
2023-02-21T14:02:32.684Z,35.68
2023-02-21T14:03:32.655Z,35.68
2023-02-21T14:04:32.857Z,35.65
2023-02-21T14:05:32.743Z,35.60
2023-02-21T14:06:32.662Z,35.54
2023-02-21T14:07:32.666Z,35.58
2023-02-21T14:08:32.668Z,35.53
2023-02-21T14:09:32.672Z,35.39
2023-02-21T14:10:32.672Z,35.57
2023-02-21T14:11:32.717Z,35.59
2023-02-21T14:12:32.654Z,35.48
2023-02-21T14:13:32.663Z,35.48
2023-02-21T14:14:32.674Z,35.59
2023-02-21T14:15:32.656Z,35.55
2023-02-21T14:16:32.790Z,35.58
2023-02-21T14:17:32.718Z,35.58
2023-02-21T14:18:32.644Z,35.50
2023-02-21T14:19:32.655Z,35.47
2023-02-21T14:20:32.649Z,35.48
2023-02-21T14:21:32.635Z,35.44
2023-02-21T14:22:32.628Z,35.41
2023-02-21T14:23:32.621Z,35.38
2023-02-21T14:24:32.623Z,35.37
2023-02-21T14:25:32.609Z,35.34
2023-02-21T14:26:32.597Z,35.32
2023-02-21T14:27:32.600Z,35.32
2023-02-21T14:28:32.586Z,35.26
2023-02-21T14:29:32.643Z,35.28
2023-02-21T14:30:32.584Z,35.28
2023-02-21T14:31:32.590Z,35.28
2023-02-21T14:32:32.607Z,35.24
2023-02-21T14:33:32.546Z,35.24
2023-02-21T14:34:32.632Z,35.32
2023-02-21T14:35:32.537Z,35.36
2023-02-21T14:36:32.557Z,35.38
2023-02-21T14:37:32.560Z,35.44
2023-02-21T14:38:32.552Z,35.38
2023-02-21T14:39:32.541Z,35.49
2023-02-21T14:40:32.548Z,35.38
2023-02-21T14:41:32.528Z,35.39
2023-02-21T14:42:32.528Z,35.47
2023-02-21T14:43:32.528Z,33.89
2023-02-21T14:44:32.602Z,32.96
2023-02-21T14:45:32.542Z,31.83
2023-02-21T14:46:32.518Z,30.48
2023-02-21T14:47:32.521Z,31.37
2023-02-21T14:48:32.521Z,31.05
2023-02-21T14:49:32.527Z,30.43
2023-02-21T14:50:32.532Z,30.30
2023-02-21T14:51:32.539Z,31.56
2023-02-21T14:52:32.538Z,30.75
2023-02-21T14:53:32.533Z,32.78
2023-02-21T14:54:32.531Z,33.48
2023-02-21T14:55:32.537Z,34.06
2023-02-21T14:56:32.542Z,34.28
2023-02-21T14:57:32.544Z,33.78
2023-02-21T14:58:32.555Z,32.83
2023-02-21T14:59:32.567Z,32.25
2023-02-21T15:00:32.577Z,29.77
2023-02-21T15:01:32.606Z,30.25
2023-02-21T15:02:32.565Z,28.56
2023-02-21T15:03:32.577Z,29.59
2023-02-21T15:04:32.636Z,28.58
2023-02-21T15:05:32.588Z,26.67
2023-02-21T15:06:32.677Z,27.08
2023-02-21T15:07:32.631Z,26.94
2023-02-21T15:08:32.650Z,25.70
2023-02-21T15:09:32.671Z,27.30
2023-02-21T15:10:32.705Z,27.87
2023-02-21T15:11:32.775Z,27.05
2023-02-21T15:12:32.757Z,26.38
2023-02-21T15:13:32.797Z,26.10
2023-02-21T15:14:32.834Z,26.91
2023-02-21T15:15:32.878Z,28.10
2023-02-21T15:16:32.930Z,27.64
2023-02-21T15:17:32.979Z,27.79
2023-02-21T15:18:32.950Z,27.31
2023-02-21T15:19:32.967Z,27.16
2023-02-21T15:20:32.989Z,29.19
2023-02-21T15:21:33.026Z,28.75
2023-02-21T15:22:33.017Z,28.93
2023-02-21T15:23:33.041Z,29.01
2023-02-21T15:24:33.045Z,29.49
2023-02-21T15:25:33.076Z,29.45
2023-02-21T15:26:33.109Z,29.52
2023-02-21T15:27:33.098Z,30.48
2023-02-21T15:28:33.108Z,30.61
2023-02-21T15:29:33.211Z,30.94
2023-02-21T15:30:33.345Z,31.12
2023-02-21T15:31:33.211Z,30.99
2023-02-21T15:32:33.162Z,31.00
2023-02-21T15:33:33.184Z,31.36
2023-02-21T15:34:33.203Z,31.44
2023-02-21T15:35:33.212Z,31.72
2023-02-21T15:36:33.226Z,31.44
2023-02-21T15:37:33.312Z,31.80
2023-02-21T15:38:33.279Z,31.64
2023-02-21T15:39:33.276Z,31.98
2023-02-21T15:40:33.307Z,31.82
2023-02-21T15:41:33.320Z,31.88
2023-02-21T15:42:33.329Z,32.04
2023-02-21T15:43:33.343Z,32.10
2023-02-21T15:44:33.370Z,32.29
2023-02-21T15:55:33.536Z,32.58
2023-02-21T15:56:33.547Z,32.59
2023-02-21T15:57:33.552Z,32.72
2023-02-21T15:58:33.575Z,32.65
2023-02-21T15:59:33.596Z,32.72
2023-02-21T16:00:33.700Z,32.83
2023-02-21T16:01:33.648Z,32.83
2023-02-21T16:02:33.648Z,32.81
2023-02-21T16:03:33.656Z,32.86
2023-02-21T16:04:34.330Z,32.80
2023-02-21T16:05:34.357Z,32.83
2023-02-21T16:06:33.698Z,32.87
2023-02-21T16:07:34.335Z,33.02
2023-02-21T16:08:33.702Z,33.04
2023-02-21T16:09:33.721Z,33.05
2023-02-21T16:10:33.757Z,33.07
2023-02-21T16:11:33.746Z,33.17
2023-02-21T16:12:33.765Z,33.17
2023-02-21T16:13:33.794Z,33.15
2023-02-21T16:14:33.784Z,33.21
2023-02-21T16:15:33.829Z,33.25
2023-02-21T16:16:33.828Z,33.19
2023-02-21T16:17:33.845Z,33.12
2023-02-21T16:18:33.862Z,33.18
2023-02-21T16:19:33.893Z,33.22
2023-02-21T16:20:33.874Z,33.25
2023-02-21T16:21:34.354Z,33.26
2023-02-21T16:22:43.037Z,33.31
2023-02-21T16:23:34.872Z,33.31
2023-02-21T16:24:33.903Z,33.31
2023-02-21T16:25:33.800Z,33.32
2023-02-21T16:26:33.774Z,33.35
2023-02-21T16:27:33.756Z,33.42
2023-02-21T16:28:33.740Z,33.39
2023-02-21T16:29:33.669Z,33.45
2023-02-21T16:30:33.662Z,33.44
2023-02-21T16:31:33.654Z,33.42
2023-02-21T16:32:33.575Z,33.49
2023-02-21T16:33:33.540Z,33.50
2023-02-21T16:34:33.523Z,33.58
2023-02-21T16:35:33.520Z,33.58
2023-02-21T16:36:33.532Z,33.58
2023-02-21T16:37:33.543Z,33.63
2023-02-21T16:38:33.587Z,33.64
2023-02-21T16:39:33.589Z,33.67
2023-02-21T16:40:33.651Z,33.74
2023-02-21T16:41:33.618Z,33.74
2023-02-21T16:42:33.632Z,33.79
2023-02-21T16:43:33.648Z,33.77
2023-02-21T16:44:33.664Z,33.78
2023-02-21T16:45:33.668Z,33.83
2023-02-21T16:46:33.693Z,33.85
2023-02-21T16:47:33.706Z,33.84
2023-02-21T16:48:33.816Z,33.90
2023-02-21T16:49:33.742Z,33.89
2023-02-21T16:50:33.737Z,33.94
2023-02-21T16:51:33.896Z,33.92
2023-02-21T17:24:34.289Z,34.24
2023-02-21T17:25:34.301Z,34.24
2023-02-21T17:26:34.329Z,34.22
2023-02-21T17:28:34.363Z,34.27
2023-02-21T17:29:34.375Z,34.28
2023-02-21T17:30:34.474Z,34.25
2023-02-21T17:31:34.478Z,34.27
2023-02-21T17:32:34.472Z,34.29
2023-02-21T17:33:34.463Z,34.28
2023-02-21T17:34:34.490Z,34.29
2023-02-21T17:35:34.494Z,34.29
2023-02-21T17:36:34.501Z,34.29
2023-02-21T17:37:34.527Z,34.29
2023-02-21T17:38:34.536Z,34.30
2023-02-21T17:39:34.560Z,34.29
2023-02-21T17:40:34.578Z,34.29
2023-02-21T17:41:34.597Z,34.29
2023-02-21T17:42:34.618Z,34.32
2023-02-21T17:43:34.672Z,34.30
2023-02-21T17:44:34.637Z,34.32
2023-02-21T17:45:34.658Z,34.31
2023-02-21T17:46:34.730Z,34.33
2023-02-21T17:47:34.845Z,34.33
2023-02-21T17:48:34.788Z,34.35
2023-02-21T17:49:34.750Z,34.30
2023-02-21T17:50:34.775Z,34.35
2023-02-21T17:51:34.806Z,34.35
2023-02-21T17:52:34.830Z,34.32
2023-02-21T17:53:34.827Z,34.35
2023-02-21T17:54:34.857Z,34.36
2023-02-21T17:55:34.874Z,34.33
2023-02-21T17:56:34.894Z,34.34
2023-02-21T17:57:34.917Z,34.32
2023-02-21T17:58:34.937Z,34.34
2023-02-21T17:59:35.006Z,34.33
2023-02-21T18:00:34.985Z,34.33
2023-02-21T18:01:35.029Z,34.35
2023-02-21T18:02:35.090Z,34.31
2023-02-21T18:03:35.042Z,34.30
2023-02-21T18:04:35.122Z,34.32
2023-02-21T18:05:35.076Z,34.31